Time;durP1;ratioP1;P1;durP2;ratioP2;P2;SDS_P1;SDS_P2;PMS_P1;PMS_P2;Temp;Humidity;BMP_temperature;BMP_pressure;BME280_temperature;BME280_humidity;BME280_pressure;Samples;Min_cycle;Max_cycle;Signal;HPM_P1;HPM_P2
2023/07/18 00:00:45;;;;;;;2.30;1.35;;;;;;;;;;5049758;28;20116;-73
2023/07/18 00:03:12;;;;;;;1.55;1.00;;;;;;;;;;5059522;28;20642;-75
2023/07/18 00:05:39;;;;;;;1.25;1.10;;;;;;;;;;5040840;28;20427;-74
2023/07/18 00:08:05;;;;;;;2.45;1.13;;;;;;;;;;5054942;28;20820;-74
2023/07/18 00:10:30;;;;;;;1.52;1.10;;;;;;;;;;5049872;28;20041;-74
2023/07/18 00:12:56;;;;;;;1.35;0.90;;;;;;;;;;5052260;28;20028;-74
2023/07/18 00:15:22;;;;;;;1.42;1.15;;;;;;;;;;5029357;28;20020;-73
2023/07/18 00:17:47;;;;;;;2.55;1.10;;;;;;;;;;5051570;28;20071;-74
2023/07/18 00:20:17;;;;;;;1.65;1.20;;;;;;;;;;5054109;28;20017;-75
2023/07/18 00:22:52;;;;;;;2.33;1.00;;;;;;;;;;5052465;28;20020;-75
2023/07/18 00:25:19;;;;;;;1.85;1.20;;;;;;;;;;5032434;28;20043;-76
2023/07/18 00:27:46;;;;;;;2.15;1.30;;;;;;;;;;5050629;28;20025;-73
2023/07/18 00:30:12;;;;;;;3.33;1.30;;;;;;;;;;5047604;28;20035;-74
2023/07/18 00:32:37;;;;;;;1.95;1.27;;;;;;;;;;5047946;28;20111;-75
2023/07/18 00:35:04;;;;;;;1.65;1.40;;;;;;;;;;5060434;28;20588;-75
2023/07/18 00:37:29;;;;;;;2.50;1.33;;;;;;;;;;5051525;28;20020;-75
2023/07/18 00:39:55;;;;;;;3.13;1.60;;;;;;;;;;5050692;28;20540;-77
2023/07/18 00:42:20;;;;;;;1.48;1.10;;;;;;;;;;5041515;28;20037;-75
2023/07/18 00:44:49;;;;;;;2.95;1.25;;;;;;;;;;5038557;28;20374;-75
2023/07/18 00:47:14;;;;;;;2.20;1.58;;;;;;;;;;5032491;28;20040;-75
2023/07/18 00:49:40;;;;;;;1.00;0.90;;;;;;;;;;5054454;28;20384;-78
2023/07/18 00:52:06;;;;;;;2.00;1.20;;;;;;;;;;5045830;28;20040;-75
2023/07/18 00:54:33;;;;;;;1.25;1.00;;;;;;;;;;5043068;28;20079;-74
2023/07/18 00:56:59;;;;;;;2.45;1.48;;;;;;;;;;5051851;28;20431;-75
2023/07/18 00:59:27;;;;;;;2.10;1.30;;;;;;;;;;5040834;28;20017;-75
2023/07/18 01:01:53;;;;;;;2.05;1.33;;;;;;;;;;5054653;28;20020;-74
2023/07/18 01:04:19;;;;;;;2.63;1.38;;;;;;;;;;5051421;28;20032;-75
2023/07/18 01:06:46;;;;;;;1.90;1.10;;;;;;;;;;5052446;28;20021;-75
2023/07/18 01:09:11;;;;;;;1.92;1.25;;;;;;;;;;5050008;28;20040;-75
2023/07/18 01:11:36;;;;;;;1.40;1.10;;;;;;;;;;5041277;28;20025;-75
2023/07/18 01:14:03;;;;;;;3.10;1.67;;;;;;;;;;5046718;28;20473;-76
2023/07/18 01:16:28;;;;;;;2.45;1.20;;;;;;;;;;5041987;28;20037;-76
2023/07/18 01:18:54;;;;;;;1.63;0.98;;;;;;;;;;5057006;28;20031;-76
2023/07/18 01:21:20;;;;;;;1.70;1.00;;;;;;;;;;5043463;28;20033;-74
2023/07/18 01:23:46;;;;;;;4.40;1.52;;;;;;;;;;5044221;28;20020;-75
2023/07/18 01:26:12;;;;;;;2.17;1.48;;;;;;;;;;5028222;28;20083;-75
2023/07/18 01:28:38;;;;;;;1.40;1.00;;;;;;;;;;5049044;28;20037;-76
2023/07/18 01:31:04;;;;;;;1.52;1.15;;;;;;;;;;5052885;28;20024;-76
2023/07/18 01:33:29;;;;;;;1.92;1.25;;;;;;;;;;5051481;28;20535;-76
2023/07/18 01:35:54;;;;;;;2.22;1.33;;;;;;;;;;5051927;28;20017;-75
2023/07/18 01:38:20;;;;;;;1.17;0.90;;;;;;;;;;5045271;28;20033;-76
2023/07/18 01:40:45;;;;;;;2.08;1.00;;;;;;;;;;5049708;28;20022;-76
2023/07/18 01:43:11;;;;;;;1.85;1.08;;;;;;;;;;5048497;28;20024;-76
2023/07/18 01:45:37;;;;;;;1.70;1.02;;;;;;;;;;5054093;28;20053;-74
2023/07/18 01:48:02;;;;;;;1.63;1.17;;;;;;;;;;5052563;28;20023;-75
2023/07/18 01:50:28;;;;;;;1.98;1.13;;;;;;;;;;5048582;28;20405;-76
2023/07/18 01:52:53;;;;;;;1.10;0.98;;;;;;;;;;5048074;28;20032;-76
2023/07/18 01:55:19;;;;;;;1.90;1.20;;;;;;;;;;5034613;28;20036;-74
2023/07/18 01:57:49;;;;;;;2.70;1.10;;;;;;;;;;5041776;28;20096;-76
2023/07/18 02:00:18;;;;;;;1.63;1.10;;;;;;;;;;5052317;28;20102;-74
2023/07/18 02:02:46;;;;;;;1.38;0.90;;;;;;;;;;5052154;28;20484;-75
2023/07/18 02:05:13;;;;;;;1.15;0.80;;;;;;;;;;5025667;28;20027;-74
2023/07/18 02:07:38;;;;;;;1.73;1.05;;;;;;;;;;5044070;28;20029;-75
2023/07/18 02:10:05;;;;;;;1.88;1.38;;;;;;;;;;5036393;28;20112;-75
2023/07/18 02:12:30;;;;;;;1.67;1.00;;;;;;;;;;5046703;28;20028;-75
2023/07/18 02:14:55;;;;;;;1.75;1.38;;;;;;;;;;5055819;28;20024;-75
2023/07/18 02:17:21;;;;;;;1.80;1.30;;;;;;;;;;5050213;28;20040;-74
2023/07/18 02:19:46;;;;;;;3.45;1.45;;;;;;;;;;5048873;28;20032;-74
2023/07/18 02:22:12;;;;;;;1.00;1.00;;;;;;;;;;5040881;28;20036;-74
2023/07/18 02:24:37;;;;;;;1.20;0.75;;;;;;;;;;5047312;28;20047;-74
2023/07/18 02:27:04;;;;;;;1.30;0.98;;;;;;;;;;5044085;28;20021;-74
2023/07/18 02:29:30;;;;;;;1.42;1.02;;;;;;;;;;5055380;28;20089;-74
2023/07/18 02:31:56;;;;;;;1.90;1.02;;;;;;;;;;5050764;28;20016;-73
2023/07/18 02:34:22;;;;;;;2.88;1.40;;;;;;;;;;5048073;28;20109;-75
2023/07/18 02:36:48;;;;;;;1.90;1.60;;;;;;;;;;5047144;28;20028;-75
2023/07/18 02:39:15;;;;;;;2.08;1.35;;;;;;;;;;5040845;28;20064;-74
2023/07/18 02:41:40;;;;;;;1.55;0.98;;;;;;;;;;5045449;28;20024;-75
2023/07/18 02:44:05;;;;;;;1.80;1.38;;;;;;;;;;5053745;28;20398;-75
2023/07/18 02:46:31;;;;;;;2.50;1.55;;;;;;;;;;5048019;28;20536;-74
2023/07/18 02:48:56;;;;;;;1.98;1.50;;;;;;;;;;5047809;28;20020;-75
2023/07/18 02:51:22;;;;;;;2.85;1.33;;;;;;;;;;5040540;28;20033;-74
2023/07/18 02:53:50;;;;;;;5.07;1.45;;;;;;;;;;5035979;28;20036;-74
2023/07/18 02:56:16;;;;;;;2.58;1.55;;;;;;;;;;5038983;28;20461;-75
2023/07/18 02:58:41;;;;;;;2.90;2.10;;;;;;;;;;5057714;28;20017;-76
2023/07/18 03:01:07;;;;;;;1.75;1.55;;;;;;;;;;5035919;28;20436;-75
2023/07/18 03:03:38;;;;;;;2.17;1.58;;;;;;;;;;5056229;28;20041;-74
2023/07/18 03:06:04;;;;;;;3.67;1.85;;;;;;;;;;5042754;28;20029;-75
2023/07/18 03:08:32;;;;;;;5.38;2.38;;;;;;;;;;5046421;28;20090;-75
2023/07/18 03:11:00;;;;;;;1.25;1.00;;;;;;;;;;5043900;28;20029;-75
2023/07/18 03:13:26;;;;;;;4.47;1.80;;;;;;;;;;5054298;28;20025;-74
2023/07/18 03:15:51;;;;;;;3.83;1.40;;;;;;;;;;5046900;28;20025;-73
2023/07/18 03:18:17;;;;;;;2.92;1.88;;;;;;;;;;5047612;28;20026;-74
2023/07/18 03:20:42;;;;;;;2.20;1.60;;;;;;;;;;5047387;28;20521;-73
2023/07/18 03:23:08;;;;;;;2.17;1.63;;;;;;;;;;5034161;28;20026;-73
2023/07/18 03:25:33;;;;;;;1.50;0.90;;;;;;;;;;5027813;28;20107;-73
2023/07/18 03:27:58;;;;;;;5.85;1.77;;;;;;;;;;5054909;28;20037;-74
2023/07/18 03:30:24;;;;;;;1.45;1.10;;;;;;;;;;5051576;28;20014;-74
2023/07/18 03:32:51;;;;;;;1.98;1.15;;;;;;;;;;5051278;28;20021;-74
2023/07/18 03:35:16;;;;;;;4.03;1.95;;;;;;;;;;5040360;28;20108;-73
2023/07/18 03:37:42;;;;;;;3.30;1.90;;;;;;;;;;5041687;28;20460;-73
2023/07/18 03:40:09;;;;;;;1.40;1.20;;;;;;;;;;5050894;28;20025;-74
2023/07/18 03:42:36;;;;;;;1.80;1.45;;;;;;;;;;5038198;28;20500;-74
2023/07/18 03:45:01;;;;;;;3.42;1.45;;;;;;;;;;5056418;28;20118;-74
2023/07/18 03:47:27;;;;;;;3.00;1.60;;;;;;;;;;5053570;28;20469;-73
2023/07/18 03:49:52;;;;;;;2.15;1.58;;;;;;;;;;5029091;28;20028;-73
2023/07/18 03:52:18;;;;;;;2.25;1.50;;;;;;;;;;5045056;28;20109;-74
2023/07/18 03:54:45;;;;;;;2.35;1.35;;;;;;;;;;5038027;28;20013;-75
2023/07/18 03:57:10;;;;;;;1.88;1.70;;;;;;;;;;5059213;28;20290;-74
2023/07/18 03:59:36;;;;;;;2.03;1.42;;;;;;;;;;5057780;28;20477;-74
2023/07/18 04:02:01;;;;;;;2.80;1.60;;;;;;;;;;5054406;28;20040;-74
2023/07/18 04:04:27;;;;;;;1.67;1.55;;;;;;;;;;5045436;28;20021;-73
2023/07/18 04:06:52;;;;;;;3.45;1.77;;;;;;;;;;5039621;28;20041;-74
2023/07/18 04:09:18;;;;;;;5.18;2.05;;;;;;;;;;5051964;28;20040;-74
2023/07/18 04:11:46;;;;;;;5.53;2.33;;;;;;;;;;5055689;28;20495;-74
2023/07/18 04:14:11;;;;;;;3.75;1.67;;;;;;;;;;5047786;28;20028;-74
2023/07/18 04:16:37;;;;;;;3.47;2.15;;;;;;;;;;5036331;28;20029;-73
2023/07/18 04:19:03;;;;;;;5.18;2.30;;;;;;;;;;5045943;28;20061;-73
2023/07/18 04:21:28;;;;;;;4.07;2.10;;;;;;;;;;5035430;28;20049;-74
2023/07/18 04:23:54;;;;;;;3.03;2.20;;;;;;;;;;5038623;28;20468;-74
2023/07/18 04:26:19;;;;;;;6.10;2.67;;;;;;;;;;5058508;28;20032;-74
2023/07/18 04:28:45;;;;;;;4.13;2.35;;;;;;;;;;5054521;28;20619;-74
2023/07/18 04:31:10;;;;;;;4.28;2.40;;;;;;;;;;5045149;28;20028;-74
2023/07/18 04:33:37;;;;;;;5.13;2.55;;;;;;;;;;5048376;28;20037;-75
2023/07/18 04:36:04;;;;;;;3.47;2.25;;;;;;;;;;5042175;28;20029;-75
2023/07/18 04:38:30;;;;;;;2.10;1.60;;;;;;;;;;5046674;28;20036;-75
2023/07/18 04:40:56;;;;;;;3.72;1.90;;;;;;;;;;5037882;28;20036;-75
2023/07/18 04:43:22;;;;;;;5.00;2.10;;;;;;;;;;5048827;28;20121;-74
2023/07/18 04:45:47;;;;;;;6.47;2.53;;;;;;;;;;5033856;28;20446;-75
2023/07/18 04:48:17;;;;;;;4.60;2.63;;;;;;;;;;5051115;28;20445;-75
2023/07/18 04:50:55;;;;;;;6.07;2.80;;;;;;;;;;5040285;28;20028;-75
2023/07/18 04:53:21;;;;;;;4.97;3.28;;;;;;;;;;5042465;28;20049;-75
2023/07/18 04:55:50;;;;;;;5.40;2.95;;;;;;;;;;5034533;28;20020;-75
2023/07/18 04:58:15;;;;;;;7.72;2.90;;;;;;;;;;5050488;28;20379;-75
2023/07/18 05:00:41;;;;;;;4.38;3.03;;;;;;;;;;5053398;28;20013;-75
2023/07/18 05:03:07;;;;;;;4.35;3.30;;;;;;;;;;5041538;28;20025;-75
2023/07/18 05:05:32;;;;;;;6.97;2.78;;;;;;;;;;5042134;28;20083;-75
2023/07/18 05:07:59;;;;;;;7.28;3.10;;;;;;;;;;5039389;28;20400;-75
2023/07/18 05:10:25;;;;;;;5.70;3.22;;;;;;;;;;5057552;28;20036;-75
2023/07/18 05:12:52;;;;;;;4.25;2.92;;;;;;;;;;5049946;28;20032;-76
2023/07/18 05:15:18;;;;;;;6.03;2.70;;;;;;;;;;5043300;28;20028;-75
2023/07/18 05:17:44;;;;;;;7.00;3.00;;;;;;;;;;5044204;28;20492;-76
2023/07/18 05:20:10;;;;;;;6.70;3.22;;;;;;;;;;5036139;28;20029;-75
2023/07/18 05:22:38;;;;;;;7.90;2.88;;;;;;;;;;5042838;28;20031;-77
2023/07/18 05:25:04;;;;;;;5.65;2.63;;;;;;;;;;5054808;28;20105;-75
2023/07/18 05:27:30;;;;;;;7.95;2.65;;;;;;;;;;5050988;28;20020;-75
2023/07/18 05:29:55;;;;;;;7.22;2.80;;;;;;;;;;5048568;28;20020;-74
2023/07/18 05:32:22;;;;;;;5.90;2.40;;;;;;;;;;5030406;28;20114;-76
2023/07/18 05:34:48;;;;;;;5.03;2.28;;;;;;;;;;5035900;28;20021;-74
2023/07/18 05:37:13;;;;;;;4.35;2.20;;;;;;;;;;5042990;28;20677;-75
2023/07/18 05:39:38;;;;;;;4.72;2.13;;;;;;;;;;5052680;28;20032;-74
2023/07/18 05:42:04;;;;;;;7.53;2.90;;;;;;;;;;5043259;28;20377;-75
2023/07/18 05:44:30;;;;;;;4.25;2.40;;;;;;;;;;5023625;28;20029;-75
2023/07/18 05:46:56;;;;;;;3.85;2.72;;;;;;;;;;5039603;28;20044;-75
2023/07/18 05:49:21;;;;;;;3.72;2.58;;;;;;;;;;5044124;28;20504;-75
2023/07/18 05:51:47;;;;;;;5.15;2.55;;;;;;;;;;5041390;28;20033;-75
2023/07/18 05:54:12;;;;;;;4.05;2.33;;;;;;;;;;5052613;28;20133;-75
2023/07/18 05:56:37;;;;;;;3.83;2.25;;;;;;;;;;5060806;28;20468;-75
2023/07/18 05:59:06;;;;;;;4.30;2.15;;;;;;;;;;5053423;28;20058;-74
2023/07/18 06:01:32;;;;;;;3.53;2.20;;;;;;;;;;5047577;28;20039;-75
2023/07/18 06:03:58;;;;;;;5.85;2.20;;;;;;;;;;5028234;28;20673;-75
2023/07/18 06:06:24;;;;;;;5.40;2.30;;;;;;;;;;5036138;28;20103;-75
2023/07/18 06:08:49;;;;;;;5.25;1.77;;;;;;;;;;5050697;28;20060;-75
2023/07/18 06:11:14;;;;;;;4.07;2.30;;;;;;;;;;5046770;28;20126;-75
2023/07/18 06:13:41;;;;;;;5.63;2.25;;;;;;;;;;5054782;28;20036;-75
2023/07/18 06:16:06;;;;;;;5.35;2.40;;;;;;;;;;5031975;28;20029;-74
2023/07/18 06:18:32;;;;;;;6.57;2.97;;;;;;;;;;5034151;28;20071;-75
2023/07/18 06:20:57;;;;;;;4.47;2.42;;;;;;;;;;5045548;28;20132;-75
2023/07/18 06:23:23;;;;;;;5.10;2.20;;;;;;;;;;5054567;28;20041;-75
2023/07/18 06:25:48;;;;;;;2.80;2.30;;;;;;;;;;5049217;28;20432;-75
2023/07/18 06:28:13;;;;;;;3.88;2.30;;;;;;;;;;5040457;28;20028;-75
2023/07/18 06:30:39;;;;;;;3.35;2.20;;;;;;;;;;5037170;28;20017;-75
2023/07/18 06:33:05;;;;;;;2.00;1.70;;;;;;;;;;5023449;28;20029;-75
2023/07/18 06:35:32;;;;;;;3.70;2.00;;;;;;;;;;5022253;28;20029;-75
2023/07/18 06:37:57;;;;;;;4.00;2.30;;;;;;;;;;5052884;28;20100;-75
2023/07/18 06:40:23;;;;;;;4.28;2.30;;;;;;;;;;5053202;28;20116;-75
2023/07/18 06:42:48;;;;;;;3.75;2.50;;;;;;;;;;5042024;28;20119;-74
2023/07/18 06:45:14;;;;;;;2.92;1.70;;;;;;;;;;5041642;28;20024;-75
2023/07/18 06:47:40;;;;;;;5.25;1.95;;;;;;;;;;5036730;28;20389;-75
2023/07/18 06:50:05;;;;;;;4.80;2.30;;;;;;;;;;5015647;28;20033;-75
2023/07/18 06:52:31;;;;;;;4.25;2.13;;;;;;;;;;5045106;28;20062;-74
2023/07/18 06:54:56;;;;;;;4.57;2.10;;;;;;;;;;5046563;28;20025;-74
2023/07/18 06:57:21;;;;;;;2.38;1.90;;;;;;;;;;5044186;28;20029;-75
2023/07/18 06:59:47;;;;;;;6.93;2.00;;;;;;;;;;5038757;28;20567;-76
2023/07/18 07:02:13;;;;;;;3.40;1.98;;;;;;;;;;5047637;28;20064;-75
2023/07/18 07:04:39;;;;;;;2.90;2.15;;;;;;;;;;5045311;28;20081;-75
2023/07/18 07:07:07;;;;;;;3.95;1.90;;;;;;;;;;5059658;28;20031;-76
2023/07/18 07:09:33;;;;;;;2.55;1.63;;;;;;;;;;5048680;28;20100;-75
2023/07/18 07:11:59;;;;;;;2.40;1.13;;;;;;;;;;5052133;28;20100;-75
2023/07/18 07:14:25;;;;;;;2.50;1.75;;;;;;;;;;5047255;28;20036;-75
2023/07/18 07:16:50;;;;;;;1.00;0.90;;;;;;;;;;5049353;28;20024;-75
2023/07/18 07:19:16;;;;;;;4.15;2.15;;;;;;;;;;5051938;28;20033;-75
2023/07/18 07:21:42;;;;;;;3.15;1.80;;;;;;;;;;5038762;28;20036;-75
2023/07/18 07:24:08;;;;;;;1.90;1.50;;;;;;;;;;5052881;28;20024;-75
2023/07/18 07:26:34;;;;;;;4.80;2.10;;;;;;;;;;5054076;28;20035;-75
2023/07/18 07:28:59;;;;;;;4.30;1.80;;;;;;;;;;5050313;28;20048;-75
2023/07/18 07:31:25;;;;;;;3.75;1.85;;;;;;;;;;5048919;28;20041;-75
2023/07/18 07:33:50;;;;;;;4.13;2.13;;;;;;;;;;5043399;28;20091;-75
2023/07/18 07:36:16;;;;;;;2.35;1.58;;;;;;;;;;5055611;28;20071;-75
2023/07/18 07:38:41;;;;;;;4.38;1.70;;;;;;;;;;5055126;28;20028;-76
2023/07/18 07:41:07;;;;;;;2.28;1.23;;;;;;;;;;5053012;28;20071;-75
2023/07/18 07:43:33;;;;;;;3.63;1.80;;;;;;;;;;5051987;28;20066;-76
2023/07/18 07:45:59;;;;;;;2.78;1.98;;;;;;;;;;5043258;28;20029;-75
2023/07/18 07:48:24;;;;;;;2.58;1.60;;;;;;;;;;5046978;28;20510;-76
2023/07/18 07:50:50;;;;;;;3.67;1.60;;;;;;;;;;5045959;28;20036;-76
2023/07/18 07:53:15;;;;;;;1.95;1.55;;;;;;;;;;5047941;28;20031;-75
2023/07/18 07:55:41;;;;;;;2.90;1.58;;;;;;;;;;5058506;28;20039;-77
2023/07/18 07:58:07;;;;;;;5.13;1.70;;;;;;;;;;5049029;28;20033;-75
2023/07/18 08:00:32;;;;;;;2.25;1.13;;;;;;;;;;5050295;28;20025;-76
2023/07/18 08:02:58;;;;;;;1.67;1.10;;;;;;;;;;5024887;28;20032;-75
2023/07/18 08:05:23;;;;;;;3.33;1.38;;;;;;;;;;5040971;28;20311;-77
2023/07/18 08:07:49;;;;;;;1.95;1.10;;;;;;;;;;5060483;28;20054;-76
2023/07/18 08:10:14;;;;;;;0.95;0.80;;;;;;;;;;5036802;28;20105;-77
2023/07/18 08:12:40;;;;;;;3.83;1.30;;;;;;;;;;5050681;28;20652;-76
2023/07/18 08:15:06;;;;;;;2.75;1.42;;;;;;;;;;5045966;28;20466;-76
2023/07/18 08:17:32;;;;;;;2.10;1.33;;;;;;;;;;5033153;28;20024;-76
2023/07/18 08:19:57;;;;;;;2.40;1.08;;;;;;;;;;5044756;28;20025;-76
2023/07/18 08:22:23;;;;;;;1.70;1.20;;;;;;;;;;5055921;28;20091;-77
2023/07/18 08:24:48;;;;;;;3.08;1.40;;;;;;;;;;5055669;28;20078;-76
2023/07/18 08:27:14;;;;;;;3.00;1.70;;;;;;;;;;5045239;28;20049;-76
2023/07/18 08:29:41;;;;;;;2.70;1.33;;;;;;;;;;5044531;28;20522;-76
2023/07/18 08:32:07;;;;;;;3.38;1.58;;;;;;;;;;5037487;28;20036;-77
2023/07/18 08:34:35;;;;;;;3.97;1.00;;;;;;;;;;5040430;28;20059;-76
2023/07/18 08:37:00;;;;;;;2.20;0.95;;;;;;;;;;5056461;28;20023;-77
2023/07/18 08:39:26;;;;;;;2.17;1.30;;;;;;;;;;5051991;28;20017;-76
2023/07/18 08:41:52;;;;;;;4.15;1.33;;;;;;;;;;5049427;28;20024;-77
2023/07/18 08:44:19;;;;;;;3.38;1.52;;;;;;;;;;5046207;28;20033;-75
2023/07/18 08:46:47;;;;;;;3.13;1.45;;;;;;;;;;5045553;28;20446;-77
2023/07/18 08:49:17;;;;;;;1.55;1.05;;;;;;;;;;5043685;28;20077;-75
2023/07/18 08:51:46;;;;;;;1.35;0.93;;;;;;;;;;5054618;28;20020;-75
2023/07/18 08:54:12;;;;;;;1.00;0.80;;;;;;;;;;5053739;28;20029;-77
2023/07/18 08:56:40;;;;;;;1.60;0.80;;;;;;;;;;5051738;28;20013;-76
2023/07/18 08:59:06;;;;;;;1.30;1.10;;;;;;;;;;5046616;28;20473;-77
2023/07/18 09:01:31;;;;;;;1.13;0.80;;;;;;;;;;5043387;28;20025;-76
2023/07/18 09:03:57;;;;;;;1.58;0.90;;;;;;;;;;5039584;28;20075;-77
2023/07/18 09:06:23;;;;;;;1.00;0.90;;;;;;;;;;5046171;28;20017;-75
2023/07/18 09:08:49;;;;;;;1.02;0.90;;;;;;;;;;5050247;28;20276;-76
2023/07/18 09:11:19;;;;;;;1.02;0.90;;;;;;;;;;5049328;28;20489;-77
2023/07/18 09:13:44;;;;;;;0.80;0.60;;;;;;;;;;5047606;28;20473;-77
2023/07/18 09:16:17;;;;;;;1.02;0.77;;;;;;;;;;5044942;28;20040;-77
2023/07/18 09:18:47;;;;;;;1.85;0.90;;;;;;;;;;5043628;28;20116;-77
2023/07/18 09:21:12;;;;;;;1.25;0.90;;;;;;;;;;5040730;28;20044;-74
2023/07/18 09:23:43;;;;;;;2.70;0.70;;;;;;;;;;5050190;28;20071;-76
2023/07/18 09:26:13;;;;;;;2.13;0.70;;;;;;;;;;5047166;28;20061;-77
2023/07/18 09:28:39;;;;;;;1.52;0.80;;;;;;;;;;5042155;28;20036;-75
2023/07/18 09:31:18;;;;;;;2.90;0.80;;;;;;;;;;5046975;28;20038;-77
2023/07/18 09:33:48;;;;;;;1.85;0.85;;;;;;;;;;5044768;28;20047;-77
2023/07/18 09:36:16;;;;;;;1.63;0.80;;;;;;;;;;5039660;28;20028;-77
2023/07/18 09:38:43;;;;;;;0.68;0.68;;;;;;;;;;5041960;28;20041;-77
2023/07/18 09:41:10;;;;;;;1.40;0.93;;;;;;;;;;5045299;28;20031;-77
2023/07/18 09:43:36;;;;;;;0.70;0.70;;;;;;;;;;5043685;28;20017;-77
2023/07/18 09:46:03;;;;;;;1.20;1.10;;;;;;;;;;5045215;28;20100;-75
2023/07/18 09:48:29;;;;;;;1.10;0.77;;;;;;;;;;5048706;28;20388;-76
2023/07/18 09:50:56;;;;;;;1.25;0.80;;;;;;;;;;5048055;28;20082;-76
2023/07/18 09:53:23;;;;;;;2.15;0.77;;;;;;;;;;5037470;28;20035;-77
2023/07/18 09:55:50;;;;;;;1.27;0.70;;;;;;;;;;5023261;28;20846;-77
2023/07/18 09:58:17;;;;;;;0.63;0.63;;;;;;;;;;5042542;28;20033;-77
2023/07/18 10:00:43;;;;;;;1.75;0.65;;;;;;;;;;5029152;28;20126;-76
2023/07/18 10:03:09;;;;;;;1.60;0.73;;;;;;;;;;5043266;28;20028;-77
2023/07/18 10:05:34;;;;;;;0.88;0.60;;;;;;;;;;5039546;28;20036;-77
2023/07/18 10:08:05;;;;;;;1.13;0.60;;;;;;;;;;5026151;28;20054;-78
2023/07/18 10:10:31;;;;;;;;;;;;;;;;;;5049188;28;20095;-78
2023/07/18 10:13:01;;;;;;;0.65;0.65;;;;;;;;;;5046950;28;19908;-77
2023/07/18 10:15:27;;;;;;;2.03;0.85;;;;;;;;;;5042013;28;20421;-76
2023/07/18 10:17:53;;;;;;;1.30;0.60;;;;;;;;;;5040068;28;20056;-77
2023/07/18 10:20:22;;;;;;;1.05;0.80;;;;;;;;;;5045574;28;20059;-76
2023/07/18 10:22:57;;;;;;;0.93;0.60;;;;;;;;;;5051258;28;20472;-77
2023/07/18 10:25:25;;;;;;;1.35;0.70;;;;;;;;;;5024880;28;20032;-79
2023/07/18 10:27:51;;;;;;;2.25;0.80;;;;;;;;;;5049638;28;20031;-79
2023/07/18 10:30:20;;;;;;;0.90;0.57;;;;;;;;;;5045302;28;20036;-78
2023/07/18 10:32:56;;;;;;;2.20;0.65;;;;;;;;;;5045958;28;20113;-79
2023/07/18 10:35:27;;;;;;;1.02;0.60;;;;;;;;;;5049750;28;20056;-78
2023/07/18 10:37:53;;;;;;;;;;;;;;;;;;5054053;28;20073;-80
2023/07/18 10:40:39;;;;;;;3.78;1.00;;;;;;;;;;5053049;28;19924;-79
2023/07/18 10:43:09;;;;;;;1.48;0.80;;;;;;;;;;5040409;28;20024;-79
2023/07/18 10:45:39;;;;;;;1.08;0.60;;;;;;;;;;5038207;28;20024;-78
2023/07/18 10:48:15;;;;;;;0.77;0.60;;;;;;;;;;5050893;28;20025;-76
2023/07/18 10:50:42;;;;;;;0.85;0.50;;;;;;;;;;5052303;28;20052;-76
2023/07/18 10:53:15;;;;;;;2.00;0.90;;;;;;;;;;5054255;28;20439;-79
2023/07/18 10:55:41;;;;;;;2.35;0.55;;;;;;;;;;5051438;28;20021;-77
2023/07/18 10:58:13;;;;;;;0.77;0.60;;;;;;;;;;5047759;28;20031;-78
2023/07/18 11:00:40;;;;;;;0.65;0.50;;;;;;;;;;5047347;28;20041;-78
2023/07/18 11:03:06;;;;;;;1.02;0.60;;;;;;;;;;5049203;28;20032;-77
2023/07/18 11:05:32;;;;;;;0.65;0.65;;;;;;;;;;5045594;28;20024;-78
2023/07/18 11:07:58;;;;;;;0.90;0.60;;;;;;;;;;5046266;28;20112;-78
2023/07/18 11:10:23;;;;;;;2.00;0.70;;;;;;;;;;5030112;28;20121;-79
2023/07/18 11:12:52;;;;;;;1.10;0.55;;;;;;;;;;5042854;28;20408;-79
2023/07/18 11:15:21;;;;;;;1.75;0.70;;;;;;;;;;5049010;28;20043;-78
2023/07/18 11:17:47;;;;;;;0.60;0.60;;;;;;;;;;5048338;28;20032;-77
2023/07/18 11:20:12;;;;;;;2.05;0.73;;;;;;;;;;5045222;28;20033;-77
2023/07/18 11:22:39;;;;;;;1.73;0.82;;;;;;;;;;5045423;28;20177;-76
2023/07/18 11:25:05;;;;;;;1.52;0.70;;;;;;;;;;5045299;28;20043;-77
2023/07/18 11:27:34;;;;;;;1.17;0.70;;;;;;;;;;5054705;28;20024;-79
2023/07/18 11:30:08;;;;;;;0.63;0.57;;;;;;;;;;5053163;28;20116;-76
2023/07/18 11:32:45;;;;;;;2.25;0.80;;;;;;;;;;5051651;28;20480;-77
2023/07/18 11:35:18;;;;;;;0.65;0.50;;;;;;;;;;5050437;28;20159;-78
2023/07/18 11:37:46;;;;;;;1.98;0.80;;;;;;;;;;5041741;28;20032;-77
2023/07/18 11:40:19;;;;;;;1.60;0.73;;;;;;;;;;5049084;28;20033;-79
2023/07/18 11:42:52;;;;;;;0.70;0.50;;;;;;;;;;5047753;28;20028;-79
2023/07/18 11:45:22;;;;;;;0.75;0.50;;;;;;;;;;5048107;28;20051;-79
2023/07/18 11:47:52;;;;;;;2.15;0.70;;;;;;;;;;5053952;28;20021;-78
2023/07/18 11:50:18;;;;;;;0.60;0.60;;;;;;;;;;5050335;28;20040;-77
2023/07/18 11:52:48;;;;;;;1.30;0.68;;;;;;;;;;5054424;28;20032;-79
2023/07/18 11:55:15;;;;;;;2.55;0.80;;;;;;;;;;5048772;28;20058;-79
2023/07/18 11:57:41;;;;;;;0.98;0.50;;;;;;;;;;5060689;28;20107;-77
2023/07/18 12:00:10;;;;;;;0.88;0.75;;;;;;;;;;5060630;28;20028;-77
2023/07/18 12:02:36;;;;;;;1.08;0.50;;;;;;;;;;5057297;28;20043;-79
2023/07/18 12:05:05;;;;;;;1.52;0.60;;;;;;;;;;5051639;28;20017;-76
2023/07/18 12:07:31;;;;;;;0.55;0.50;;;;;;;;;;5046068;28;20388;-79
2023/07/18 12:09:57;;;;;;;1.30;0.70;;;;;;;;;;5050063;28;20032;-78
2023/07/18 12:12:23;;;;;;;2.75;0.80;;;;;;;;;;5051664;28;20035;-79
2023/07/18 12:14:50;;;;;;;2.58;0.90;;;;;;;;;;5054279;28;20028;-76
2023/07/18 12:17:15;;;;;;;0.65;0.50;;;;;;;;;;5033188;28;20028;-79
2023/07/18 12:19:42;;;;;;;0.60;0.60;;;;;;;;;;5051199;28;20083;-79
2023/07/18 12:22:07;;;;;;;1.40;0.82;;;;;;;;;;5050544;28;20032;-79
2023/07/18 12:24:33;;;;;;;1.13;0.73;;;;;;;;;;5050340;28;20111;-79
2023/07/18 12:26:58;;;;;;;1.50;0.90;;;;;;;;;;5044933;28;20055;-79
2023/07/18 12:29:24;;;;;;;1.75;0.57;;;;;;;;;;5049975;28;20032;-79
2023/07/18 12:31:51;;;;;;;1.65;0.60;;;;;;;;;;5053426;28;20055;-78
2023/07/18 12:34:18;;;;;;;1.25;0.80;;;;;;;;;;5048426;28;20032;-79
2023/07/18 12:36:43;;;;;;;1.83;0.70;;;;;;;;;;5050585;28;20021;-77
2023/07/18 12:39:09;;;;;;;1.02;0.70;;;;;;;;;;5049519;28;20040;-79
2023/07/18 12:41:37;;;;;;;1.10;0.60;;;;;;;;;;5050131;28;20103;-78
2023/07/18 12:44:03;;;;;;;1.77;0.95;;;;;;;;;;5046039;28;20027;-79
2023/07/18 12:46:28;;;;;;;1.40;0.75;;;;;;;;;;5050924;28;20471;-77
2023/07/18 12:48:54;;;;;;;0.93;0.73;;;;;;;;;;5056950;28;20038;-76
2023/07/18 12:51:21;;;;;;;1.70;0.68;;;;;;;;;;5046387;28;20040;-79
2023/07/18 12:53:46;;;;;;;1.20;0.70;;;;;;;;;;5054848;28;20033;-79
2023/07/18 12:56:12;;;;;;;0.60;0.60;;;;;;;;;;5038725;28;20514;-79
2023/07/18 12:58:37;;;;;;;1.92;0.82;;;;;;;;;;5059978;28;20028;-77
2023/07/18 13:01:03;;;;;;;0.90;0.90;;;;;;;;;;5054910;28;20496;-78
2023/07/18 13:03:29;;;;;;;1.42;0.90;;;;;;;;;;5051897;28;20026;-79
2023/07/18 13:05:54;;;;;;;1.02;0.70;;;;;;;;;;5034196;28;20504;-77
2023/07/18 13:08:19;;;;;;;1.35;0.80;;;;;;;;;;5046863;28;20029;-77
2023/07/18 13:10:45;;;;;;;1.05;0.85;;;;;;;;;;5055045;28;20105;-78
2023/07/18 13:13:11;;;;;;;2.25;1.00;;;;;;;;;;5048872;28;20020;-79
2023/07/18 13:15:36;;;;;;;1.73;0.70;;;;;;;;;;5050008;28;20024;-78
2023/07/18 13:18:02;;;;;;;2.38;0.82;;;;;;;;;;5053151;28;20700;-77
2023/07/18 13:20:28;;;;;;;2.85;1.00;;;;;;;;;;5058767;28;20083;-77
2023/07/18 13:22:53;;;;;;;1.40;0.90;;;;;;;;;;5065833;28;20040;-78
2023/07/18 13:25:19;;;;;;;2.35;0.90;;;;;;;;;;5058886;28;20071;-77
2023/07/18 13:27:44;;;;;;;1.30;0.73;;;;;;;;;;5056575;28;20028;-78
2023/07/18 13:30:10;;;;;;;1.80;1.00;;;;;;;;;;5056345;28;20029;-79
2023/07/18 13:32:35;;;;;;;1.15;0.70;;;;;;;;;;5049418;28;20033;-78
2023/07/18 13:35:01;;;;;;;0.70;0.57;;;;;;;;;;5027143;28;20021;-79
2023/07/18 13:37:27;;;;;;;3.22;0.98;;;;;;;;;;5053363;28;20031;-78
2023/07/18 13:39:52;;;;;;;1.77;0.90;;;;;;;;;;5038252;28;20027;-78
2023/07/18 13:42:17;;;;;;;1.27;0.60;;;;;;;;;;5060048;28;20444;-79
2023/07/18 13:44:43;;;;;;;1.15;0.80;;;;;;;;;;5060111;28;20101;-79
2023/07/18 13:47:08;;;;;;;1.58;0.60;;;;;;;;;;5036597;28;20096;-78
2023/07/18 13:49:34;;;;;;;1.52;1.00;;;;;;;;;;5055569;28;20105;-79
2023/07/18 13:51:59;;;;;;;0.88;0.80;;;;;;;;;;5062202;28;20033;-77
2023/07/18 13:54:25;;;;;;;3.95;0.90;;;;;;;;;;5057773;28;20025;-78
2023/07/18 13:56:50;;;;;;;2.05;0.93;;;;;;;;;;5051960;28;20031;-79
2023/07/18 13:59:15;;;;;;;1.63;0.98;;;;;;;;;;5050544;28;20060;-77
2023/07/18 14:01:41;;;;;;;0.82;0.70;;;;;;;;;;5046469;28;20022;-76
2023/07/18 14:04:06;;;;;;;1.30;1.02;;;;;;;;;;5027387;28;20532;-77
2023/07/18 14:06:32;;;;;;;1.73;0.88;;;;;;;;;;5059398;28;20024;-78
2023/07/18 14:08:57;;;;;;;1.92;0.70;;;;;;;;;;5056439;28;20033;-77
2023/07/18 14:11:23;;;;;;;1.55;0.70;;;;;;;;;;5052156;28;20047;-78
2023/07/18 14:13:48;;;;;;;2.22;0.90;;;;;;;;;;5049969;28;20021;-78
2023/07/18 14:16:13;;;;;;;1.30;0.60;;;;;;;;;;5044180;28;20021;-79
2023/07/18 14:18:39;;;;;;;1.75;0.98;;;;;;;;;;5041512;28;20041;-78
2023/07/18 14:21:04;;;;;;;2.28;1.20;;;;;;;;;;5052196;28;20029;-76
2023/07/18 14:23:31;;;;;;;1.40;0.80;;;;;;;;;;5049246;28;20473;-77
2023/07/18 14:25:57;;;;;;;2.05;0.80;;;;;;;;;;5045510;28;20108;-78
2023/07/18 14:28:22;;;;;;;1.88;0.98;;;;;;;;;;5048522;28;20045;-78
2023/07/18 14:30:48;;;;;;;1.23;0.75;;;;;;;;;;5044822;28;20022;-78
2023/07/18 14:33:16;;;;;;;2.42;0.95;;;;;;;;;;5032856;28;20053;-77
2023/07/18 14:35:42;;;;;;;1.92;1.08;;;;;;;;;;5045109;28;20028;-79
2023/07/18 14:38:10;;;;;;;1.73;0.98;;;;;;;;;;5048774;28;20039;-76